• Join FlightAware (Why Join?)
  • Login
  • US Flag 
05:04AM EDT


 

Airport Tracker/Info


-or-


 

Live Flight TrackerFlight Track Log ✈ CCA1838 ✈ 07-May-2012 ✈ ZGGG / CAN - ZSSS / SHA

Flight Track Log - Related Links

Times and Time Zones

All times are in EDT time to prevent confusion due to time zone crossing. See the CCA1838 flight status page for this flight to view local times or setup timezone preferences in your user account.

Time Position Orientation Groundspeed Altitude Reporting Facility
EDT Latitude Longitude Course Direction KTS MPH feet Rate Location/Type
09:51PM 23.6263 113.5183 41° Northeast  Level Estimated
09:52PM 23.6925 113.5806 41° Northeast  Level Estimated
09:53PM 23.7586 113.6430 41° Northeast  Level Estimated
09:54PM 23.8247 113.7054 41° Northeast  Level Estimated
09:55PM 23.8907 113.7679 41° Northeast  Level Estimated
09:56PM 23.9568 113.8304 41° Northeast  Level Estimated
09:57PM 24.0228 113.8930 41° Northeast  Level Estimated
09:58PM 24.0888 113.9557 41° Northeast  Level Estimated
09:59PM 24.1547 114.0184 41° Northeast  Level Estimated
10:00PM 24.2207 114.0812 41° Northeast  Level Estimated
10:01PM 24.2866 114.1441 41° Northeast  Level Estimated
10:02PM 24.3524 114.2070 41° Northeast  Level Estimated
10:03PM 24.4183 114.2700 41° Northeast  Level Estimated
10:04PM 24.4841 114.3331 41° Northeast  Level Estimated
10:05PM 24.5499 114.3962 41° Northeast  Level Estimated
10:06PM 24.6157 114.4594 41° Northeast  Level Estimated
10:07PM 24.6815 114.5226 41° Northeast  Level Estimated
10:08PM 24.7472 114.5860 41° Northeast  Level Estimated
10:09PM 24.8129 114.6493 41° Northeast  Level Estimated
10:10PM 24.8786 114.7128 41° Northeast  Level Estimated
10:11PM 24.9442 114.7763 41° Northeast  Level Estimated
10:12PM 25.0098 114.8399 41° Northeast  Level Estimated
10:13PM 25.0754 114.9036 41° Northeast  Level Estimated
10:14PM 25.1410 114.9673 41° Northeast  Level Estimated
10:15PM 25.2065 115.0311 41° Northeast  Level Estimated
10:16PM 25.2721 115.0950 41° Northeast  Level Estimated
10:17PM 25.3375 115.1589 41° Northeast  Level Estimated
10:18PM 25.4030 115.2229 41° Northeast  Level Estimated
10:19PM 25.4684 115.2870 42° Northeast  Level Estimated
10:20PM 25.5338 115.3511 42° Northeast  Level Estimated
10:21PM 25.5992 115.4153 42° Northeast  Level Estimated
10:22PM 25.6645 115.4796 42° Northeast  Level Estimated
10:23PM 25.7299 115.5440 42° Northeast  Level Estimated
10:24PM 25.7951 115.6084 42° Northeast  Level Estimated
10:25PM 25.8604 115.6729 42° Northeast  Level Estimated
10:26PM 25.9256 115.7375 42° Northeast  Level Estimated
10:27PM 25.9908 115.8021 42° Northeast  Level Estimated
10:28PM 26.0560 115.8668 42° Northeast  Level Estimated
10:29PM 26.1211 115.9316 42° Northeast  Level Estimated
10:30PM 26.1863 115.9965 42° Northeast  Level Estimated
10:31PM 26.2513 116.0614 42° Northeast  Level Estimated
10:32PM 26.3164 116.1264 42° Northeast  Level Estimated
10:33PM 26.3814 116.1915 42° Northeast  Level Estimated
10:34PM 26.4464 116.2566 42° Northeast  Level Estimated
10:35PM 26.5114 116.3218 42° Northeast  Level Estimated
10:36PM 26.5763 116.3871 42° Northeast  Level Estimated
10:37PM 26.6413 116.4525 42° Northeast  Level Estimated
10:38PM 26.7061 116.5179 42° Northeast  Level Estimated
10:39PM 26.7710 116.5835 42° Northeast  Level Estimated
10:40PM 26.8358 116.6490 42° Northeast  Level Estimated
10:41PM 26.9006 116.7147 42° Northeast  Level Estimated
10:42PM 26.9653 116.7804 42° Northeast  Level Estimated
10:43PM 27.0301 116.8463 42° Northeast  Level Estimated
10:44PM 27.0948 116.9122 42° Northeast  Level Estimated
10:45PM 27.1595 116.9781 42° Northeast  Level Estimated
10:46PM 27.2241 117.0442 42° Northeast  Level Estimated
10:47PM 27.2887 117.1103 42° Northeast  Level Estimated
10:48PM 27.3533 117.1765 42° Northeast  Level Estimated
10:49PM 27.4178 117.2428 42° Northeast  Level Estimated
10:50PM 27.4823 117.3091 42° Northeast  Level Estimated
10:51PM 27.5468 117.3755 42° Northeast  Level Estimated
10:52PM 27.6112 117.4421 42° Northeast  Level Estimated
10:53PM 27.6757 117.5087 42° Northeast  Level Estimated
10:54PM 27.7400 117.5753 43° Northeast  Level Estimated
10:55PM 27.8044 117.6421 43° Northeast  Level Estimated
10:56PM 27.8687 117.7089 43° Northeast  Level Estimated
10:57PM 27.9330 117.7758 43° Northeast  Level Estimated
10:58PM 27.9973 117.8428 43° Northeast  Level Estimated
10:59PM 28.0615 117.9098 43° Northeast  Level Estimated
11:00PM 28.1257 117.9770 43° Northeast  Level Estimated
11:01PM 28.1898 118.0442 43° Northeast  Level Estimated
11:02PM 28.2540 118.1115 43° Northeast  Level Estimated
11:03PM 28.3180 118.1789 43° Northeast  Level Estimated
11:04PM 28.3821 118.2464 43° Northeast  Level Estimated
11:05PM 28.4461 118.3139 43° Northeast  Level Estimated
11:06PM 28.5101 118.3815 43° Northeast  Level Estimated
11:07PM 28.5741 118.4492 43° Northeast  Level Estimated
11:08PM 28.6380 118.5171 43° Northeast  Level Estimated
11:09PM 28.7019 118.5849 43° Northeast  Level Estimated
11:10PM 28.7657 118.6529 43° Northeast  Level Estimated
11:11PM 28.8296 118.7209 43° Northeast  Level Estimated
11:12PM 28.8934 118.7891 43° Northeast  Level Estimated
11:13PM 28.9571 118.8573 43° Northeast  Level Estimated
11:14PM 29.0208 118.9256 43° Northeast  Level Estimated
11:15PM 29.0845 118.9939 43° Northeast  Level Estimated
11:16PM 29.1482 119.0624 43° Northeast  Level Estimated
11:17PM 29.2118 119.1310 43° Northeast  Level Estimated
11:18PM 29.2754 119.1996 43° Northeast  Level Estimated
11:19PM 29.3389 119.2683 43° Northeast  Level Estimated
11:20PM 29.4024 119.3371 43° Northeast  Level Estimated
11:21PM 29.4659 119.4060 43° Northeast  Level Estimated
11:22PM 29.5293 119.4750 43° Northeast  Level Estimated
11:23PM 29.5927 119.5441 43° Northeast  Level Estimated
11:24PM 29.6561 119.6132 44° Northeast  Level Estimated
11:25PM 29.7194 119.6824 44° Northeast  Level Estimated
11:26PM 29.7827 119.7518 44° Northeast  Level Estimated
11:27PM 29.8460 119.8212 44° Northeast  Level Estimated
11:28PM 29.9092 119.8907 44° Northeast  Level Estimated
11:29PM 29.9724 119.9603 44° Northeast  Level Estimated
11:30PM 30.0355 120.0300 44° Northeast  Level Estimated
11:31PM 30.0986 120.0997 44° Northeast  Level Estimated
11:32PM 30.1617 120.1696 44° Northeast  Level Estimated
11:33PM 30.2248 120.2395 44° Northeast  Level Estimated
11:34PM 30.2878 120.3096 44° Northeast  Level Estimated
11:35PM 30.3507 120.3797 44° Northeast  Level Estimated
11:36PM 30.4137 120.4499 44° Northeast  Level Estimated
11:37PM 30.4765 120.5202 44° Northeast  Level Estimated
11:38PM 30.5394 120.5906 44° Northeast  Level Estimated
11:39PM 30.6022 120.6611 44° Northeast  Level Estimated
11:40PM 30.6650 120.7317 44° Northeast  Level Estimated
11:41PM 30.7277 120.8023 44° Northeast  Level Estimated
11:42PM 30.7904 120.8731 44° Northeast  Level Estimated